Terminal Aerodrome Forecast
Issued by NWS

Home | Current Version | Previous Version | Text Only | Print | Product List | Glossary On
Versions: 1 2 3 4 5 6 7 8 9 10 11 12 13 14 15 16 17 18 19
000
FTUS41 KBTV 012331
TAFMPV
TAF
KMPV 012331Z 0200/0224 14003KT 5SM BR VCSH BKN015 OVC025
      TEMPO 0202/0204 BKN007
     FM020400 VRB03KT 3SM BR VCSH BKN007 OVC015
     FM021300 VRB03KT 6SM BR BKN015 OVC025
     FM021600 33004KT P6SM BKN025 OVC045=

USA.gov is the U.S. government's official web portal to all federal, state and local government web resources and services.